Flight Track Log - Related Links

Times and Time Zones

All times are in EDT time to prevent confusion due to time zone crossing. See the EJA941 flight status page for this flight to view local times or setup timezone preferences in your user account.

Time Position Orientation Groundspeed Altitude Reporting Facility
EDT Latitude Longitude Course Direction KTS MPH feet Rate Location/Type
Mon 12:30:06 39.8833 -75.2000 90° East 172 198 700  Level Philadelphia TRACON
Mon 12:30:48 39.8833 -75.1500 90° East 202 232 2,800 2,727 Climbing Philadelphia TRACON
Mon 12:32:40 39.8503 -74.9917 105° East 271 312 7,700 2,547 Climbing New York Center
Mon 12:33:40 39.8308 -74.8986 105° East 281 323 10,100 1,765 Climbing New York Center
Mon 12:34:39 39.8058 -74.7756 105° East 318 366 11,200 1,525 Climbing New York Center
Mon 12:35:42 39.8000 -74.6428 93° East 341 392 13,200 1,800 Climbing New York Center
Mon 12:36:39 39.8106 -74.5056 84° East 366 421 14,800 1,608 Climbing New York Center
Mon 12:38:56 39.8983 -74.2006 69° East 400 460 18,400 1,523 Climbing Boston Center
Mon 12:39:56 39.9650 -74.0725 56° Northeast 400 460 19,800 1,400 Climbing Boston Center
Mon 12:40:56 40.0314 -73.9414 56° Northeast 419 482 21,200 1,400 Climbing Boston Center
Mon 12:41:56 40.0997 -73.8044 57° Northeast 432 497 22,600 908 Climbing Boston Center
Mon 12:42:55 40.1744 -73.6539 57° Northeast 452 520 23,000 200 Climbing Boston Center
Mon 12:43:56 40.2511 -73.4922 58° Northeast 484 557 23,000  Level Boston Center
Mon 12:44:56 40.3233 -73.3328 59° Northeast 507 583 23,000  Level Boston Center
Mon 12:45:56 40.3850 -73.1619 65° Northeast 507 583 23,000  Level Boston Center
Mon 12:48:08 40.5078 -72.7811 67° East 517 595 23,000  Level Boston Center
Mon 12:49:07 40.5642 -72.6122 66° East 507 583 23,000  Level Boston Center
Mon 12:50:08 40.6186 -72.4428 67° East 501 577 23,000  Level Boston Center
Mon 12:51:08 40.6686 -72.2758 68° East 496 571 23,000  Level Boston Center
Mon 12:53:20 40.7842 -71.9247 66° East 489 563 23,000 -219 Level Boston Center
Mon 12:54:20 40.8394 -71.7653 65° Northeast 480 552 22,300 -1,450 Descending Boston Center
Mon 12:55:20 40.8925 -71.5889 68° East 494 568 20,100 -1,250 Descending Boston Center
Mon 12:56:20 40.9369 -71.4125 72° East 506 582 19,800 -1,450 Descending Boston Center
Mon 12:57:20 40.9894 -71.2439 68° East 501 577 17,200 -3,150 Descending Boston Center
Mon 12:58:20 41.0417 -71.0806 67° East 458 527 13,500 -3,100 Descending Boston Center
Mon 12:59:20 41.0797 -70.9558 68° East 419 482 11,000 -1,233 Descending Boston Center
Mon 13:01:00 41.0872 -70.7229 102° East  Level FlightAware Approximate
Mon 13:01:20 41.0969 -70.7019 102° East 346 398 9,800  Level Boston Center
Mon 13:02:20 41.0806 -70.5925 101° East 322 371 7,900 -1,450 Descending Boston Center
Mon 13:03:20 41.0808 -70.4794 90° East 306 352 6,900 -700 Descending Boston Center
Mon 13:04:20 41.0872 -70.3692 86° East 301 346 6,500 -1,000 Descending Boston Center
Mon 13:05:20 41.1142 -70.2608 72° East 296 341 4,900 -807 Descending Boston Center
Mon 13:06:19 41.1356 -70.1803 71° East 296 341 4,900 -450 Level Boston Center
Mon 13:07:20 41.1644 -70.0606 72° East 291 335 4,000 -663 Descending Boston Center
Mon 13:09:20 41.2614 -69.9217 47° Northeast 254 292 2,900 -367 Descending Boston Center
Mon 13:10:20 41.3119 -69.8561 44° Northeast 254 292 2,900 -333 Level Boston Center
Mon 13:12:20 41.3669 -69.8842 339° North 95 109 1,900 -333 Descending Boston Center
Mon 13:13:20 41.3536 -69.9375 252° West 99 114 1,900 -50 Level Boston Center
Mon 13:14:20 41.3253 -69.9744 224° Southwest 135 155 1,800 -333 Descending Boston Center
Mon 13:16:00 41.2500 -70.0500 252° West  Level FlightAware Approximate
Mon 13:16:20 41.2806 -70.0369 252° West 117 135 900  Level Boston Center
Mon 13:18:00 41.2531 -70.0603 252° West  Level Estimated
Mon 13:25:00 41.2531 -70.0603 252° West  Level Estimated
Mon 13:26:00 41.2531 -70.0603 252° West  Level Estimated
Mon 13:27:00 41.2531 -70.0603 252° West  Level Estimated
Mon 13:28:00 41.2531 -70.0603 252° West  Level Estimated
Mon 13:29:00 41.2531 -70.0603 252° West  Level Estimated

Login

Don't have an account? Register now (free) for customized features, flight alerts, and more!